sensor_id;sensor_type;location;lat;lon;timestamp;temperature;humidity
20416;DHT22;10367;52.202;5.996;2023-12-29T00:01:41;10.00;99.90
20416;DHT22;10367;52.202;5.996;2023-12-29T00:04:10;10.00;99.90
20416;DHT22;10367;52.202;5.996;2023-12-29T00:06:39;10.10;99.90
20416;DHT22;10367;52.202;5.996;2023-12-29T00:09:23;10.10;99.90
20416;DHT22;10367;52.202;5.996;2023-12-29T00:11:52;10.10;99.90
20416;DHT22;10367;52.202;5.996;2023-12-29T00:14:21;10.10;99.90
20416;DHT22;10367;52.202;5.996;2023-12-29T00:16:51;10.20;99.90
20416;DHT22;10367;52.202;5.996;2023-12-29T00:19:24;10.30;99.90
20416;DHT22;10367;52.202;5.996;2023-12-29T00:21:53;10.30;99.90
20416;DHT22;10367;52.202;5.996;2023-12-29T00:24:22;10.30;99.90
20416;DHT22;10367;52.202;5.996;2023-12-29T00:26:51;10.30;99.90
20416;DHT22;10367;52.202;5.996;2023-12-29T00:29:19;10.40;99.90
20416;DHT22;10367;52.202;5.996;2023-12-29T00:31:48;10.40;99.90
20416;DHT22;10367;52.202;5.996;2023-12-29T00:34:18;10.30;99.90
20416;DHT22;10367;52.202;5.996;2023-12-29T00:36:47;10.40;99.90
20416;DHT22;10367;52.202;5.996;2023-12-29T00:39:16;10.40;99.90
20416;DHT22;10367;52.202;5.996;2023-12-29T00:41:45;10.40;99.90
20416;DHT22;10367;52.202;5.996;2023-12-29T00:44:14;10.30;99.90
20416;DHT22;10367;52.202;5.996;2023-12-29T00:46:42;10.30;99.90
20416;DHT22;10367;52.202;5.996;2023-12-29T00:49:11;10.20;99.90
20416;DHT22;10367;52.202;5.996;2023-12-29T00:51:41;10.00;99.90
20416;DHT22;10367;52.202;5.996;2023-12-29T00:54:10;9.90;99.90
20416;DHT22;10367;52.202;5.996;2023-12-29T00:56:39;9.90;99.90
20416;DHT22;10367;52.202;5.996;2023-12-29T00:59:08;9.90;99.90
20416;DHT22;10367;52.202;5.996;2023-12-29T01:01:36;9.80;99.90
20416;DHT22;10367;52.202;5.996;2023-12-29T01:04:05;9.80;99.90
20416;DHT22;10367;52.202;5.996;2023-12-29T01:06:34;9.80;99.90
20416;DHT22;10367;52.202;5.996;2023-12-29T01:09:04;9.90;99.90
20416;DHT22;10367;52.202;5.996;2023-12-29T01:11:33;9.90;99.90
20416;DHT22;10367;52.202;5.996;2023-12-29T01:14:01;9.90;99.90
20416;DHT22;10367;52.202;5.996;2023-12-29T01:16:30;9.90;99.90
20416;DHT22;10367;52.202;5.996;2023-12-29T01:18:59;9.90;99.90
20416;DHT22;10367;52.202;5.996;2023-12-29T01:21:28;10.00;99.90
20416;DHT22;10367;52.202;5.996;2023-12-29T01:24:01;10.00;99.90
20416;DHT22;10367;52.202;5.996;2023-12-29T01:26:36;10.00;99.90
20416;DHT22;10367;52.202;5.996;2023-12-29T01:29:05;10.00;99.90
20416;DHT22;10367;52.202;5.996;2023-12-29T01:31:34;10.00;99.90
20416;DHT22;10367;52.202;5.996;2023-12-29T01:34:03;10.10;99.90
20416;DHT22;10367;52.202;5.996;2023-12-29T01:36:32;10.10;99.90
20416;DHT22;10367;52.202;5.996;2023-12-29T01:39:01;10.20;99.90
20416;DHT22;10367;52.202;5.996;2023-12-29T01:41:30;10.20;99.90
20416;DHT22;10367;52.202;5.996;2023-12-29T01:44:19;10.20;99.90
20416;DHT22;10367;52.202;5.996;2023-12-29T01:46:50;10.20;99.90
20416;DHT22;10367;52.202;5.996;2023-12-29T01:49:20;10.30;99.90
20416;DHT22;10367;52.202;5.996;2023-12-29T01:51:50;10.30;99.90
20416;DHT22;10367;52.202;5.996;2023-12-29T01:54:20;10.40;99.90
20416;DHT22;10367;52.202;5.996;2023-12-29T01:56:50;10.40;99.90
20416;DHT22;10367;52.202;5.996;2023-12-29T01:59:23;10.40;99.90
20416;DHT22;10367;52.202;5.996;2023-12-29T02:01:54;10.40;99.90
20416;DHT22;10367;52.202;5.996;2023-12-29T02:04:24;10.40;99.90
20416;DHT22;10367;52.202;5.996;2023-12-29T02:06:54;10.50;99.90
20416;DHT22;10367;52.202;5.996;2023-12-29T02:09:23;10.50;99.90
20416;DHT22;10367;52.202;5.996;2023-12-29T02:11:52;10.40;99.90
20416;DHT22;10367;52.202;5.996;2023-12-29T02:14:22;10.40;99.90
20416;DHT22;10367;52.202;5.996;2023-12-29T02:16:57;10.40;99.90
20416;DHT22;10367;52.202;5.996;2023-12-29T02:19:37;10.40;99.90
20416;DHT22;10367;52.202;5.996;2023-12-29T02:22:08;10.40;99.90
20416;DHT22;10367;52.202;5.996;2023-12-29T02:24:38;10.50;99.90
20416;DHT22;10367;52.202;5.996;2023-12-29T02:27:25;10.50;99.90
20416;DHT22;10367;52.202;5.996;2023-12-29T02:30:08;10.40;99.90
20416;DHT22;10367;52.202;5.996;2023-12-29T02:32:39;10.50;99.90
20416;DHT22;10367;52.202;5.996;2023-12-29T02:35:11;10.40;99.90
20416;DHT22;10367;52.202;5.996;2023-12-29T02:37:41;10.50;99.90
20416;DHT22;10367;52.202;5.996;2023-12-29T02:40:11;10.50;99.90
20416;DHT22;10367;52.202;5.996;2023-12-29T02:42:46;10.40;99.90
20416;DHT22;10367;52.202;5.996;2023-12-29T02:45:15;10.40;99.90
20416;DHT22;10367;52.202;5.996;2023-12-29T02:47:44;10.30;99.90
20416;DHT22;10367;52.202;5.996;2023-12-29T02:50:14;10.40;99.90
20416;DHT22;10367;52.202;5.996;2023-12-29T02:52:42;10.40;99.90
20416;DHT22;10367;52.202;5.996;2023-12-29T02:55:11;10.40;99.90
20416;DHT22;10367;52.202;5.996;2023-12-29T02:57:40;10.40;99.90
20416;DHT22;10367;52.202;5.996;2023-12-29T03:00:11;10.40;99.90
20416;DHT22;10367;52.202;5.996;2023-12-29T03:02:40;10.40;99.90
20416;DHT22;10367;52.202;5.996;2023-12-29T03:05:09;10.40;99.90
20416;DHT22;10367;52.202;5.996;2023-12-29T03:07:38;10.40;99.90
20416;DHT22;10367;52.202;5.996;2023-12-29T03:10:08;10.40;99.90
20416;DHT22;10367;52.202;5.996;2023-12-29T03:12:37;10.30;99.90
20416;DHT22;10367;52.202;5.996;2023-12-29T03:15:06;10.40;99.90
20416;DHT22;10367;52.202;5.996;2023-12-29T03:17:36;10.40;99.90
20416;DHT22;10367;52.202;5.996;2023-12-29T03:20:06;10.20;99.90
20416;DHT22;10367;52.202;5.996;2023-12-29T03:22:35;10.10;99.90
20416;DHT22;10367;52.202;5.996;2023-12-29T03:25:04;9.90;99.90
20416;DHT22;10367;52.202;5.996;2023-12-29T03:27:33;9.90;99.90
20416;DHT22;10367;52.202;5.996;2023-12-29T03:30:02;9.80;99.90
20416;DHT22;10367;52.202;5.996;2023-12-29T03:32:31;9.80;99.90
20416;DHT22;10367;52.202;5.996;2023-12-29T03:35:01;9.70;99.90
20416;DHT22;10367;52.202;5.996;2023-12-29T03:37:30;9.70;99.90
20416;DHT22;10367;52.202;5.996;2023-12-29T03:39:59;9.60;99.90
20416;DHT22;10367;52.202;5.996;2023-12-29T03:42:28;9.60;99.90
20416;DHT22;10367;52.202;5.996;2023-12-29T03:44:57;9.60;99.90
20416;DHT22;10367;52.202;5.996;2023-12-29T03:47:26;9.60;99.90
20416;DHT22;10367;52.202;5.996;2023-12-29T03:49:57;9.60;99.90
20416;DHT22;10367;52.202;5.996;2023-12-29T03:52:28;9.50;99.90
20416;DHT22;10367;52.202;5.996;2023-12-29T03:54:57;9.50;99.90
20416;DHT22;10367;52.202;5.996;2023-12-29T03:57:26;9.40;99.90
20416;DHT22;10367;52.202;5.996;2023-12-29T03:59:54;9.40;99.90
20416;DHT22;10367;52.202;5.996;2023-12-29T04:02:23;9.50;99.90
20416;DHT22;10367;52.202;5.996;2023-12-29T04:04:52;9.40;99.90
20416;DHT22;10367;52.202;5.996;2023-12-29T04:07:21;9.40;99.90
20416;DHT22;10367;52.202;5.996;2023-12-29T04:09:51;9.40;99.90
20416;DHT22;10367;52.202;5.996;2023-12-29T04:12:19;9.40;99.90
20416;DHT22;10367;52.202;5.996;2023-12-29T04:14:48;9.40;99.90
20416;DHT22;10367;52.202;5.996;2023-12-29T04:17:17;9.40;99.90
20416;DHT22;10367;52.202;5.996;2023-12-29T04:19:45;9.40;99.90
20416;DHT22;10367;52.202;5.996;2023-12-29T04:22:14;9.40;99.90
20416;DHT22;10367;52.202;5.996;2023-12-29T04:24:43;9.40;99.90
20416;DHT22;10367;52.202;5.996;2023-12-29T04:27:14;9.40;99.90
20416;DHT22;10367;52.202;5.996;2023-12-29T04:29:43;9.40;99.90
20416;DHT22;10367;52.202;5.996;2023-12-29T04:32:12;9.40;99.90
20416;DHT22;10367;52.202;5.996;2023-12-29T04:34:41;9.40;99.90
20416;DHT22;10367;52.202;5.996;2023-12-29T04:37:10;9.50;99.90
20416;DHT22;10367;52.202;5.996;2023-12-29T04:39:39;9.60;99.90
20416;DHT22;10367;52.202;5.996;2023-12-29T04:42:08;9.50;99.90
20416;DHT22;10367;52.202;5.996;2023-12-29T04:44:38;9.50;99.90
20416;DHT22;10367;52.202;5.996;2023-12-29T04:47:06;9.50;99.90
20416;DHT22;10367;52.202;5.996;2023-12-29T04:49:35;9.50;99.90
20416;DHT22;10367;52.202;5.996;2023-12-29T04:52:04;9.50;99.90
20416;DHT22;10367;52.202;5.996;2023-12-29T04:54:33;9.50;99.90
20416;DHT22;10367;52.202;5.996;2023-12-29T04:57:02;9.50;99.90
20416;DHT22;10367;52.202;5.996;2023-12-29T04:59:31;9.50;99.90
20416;DHT22;10367;52.202;5.996;2023-12-29T05:02:02;9.50;99.90
20416;DHT22;10367;52.202;5.996;2023-12-29T05:04:30;9.60;99.90
20416;DHT22;10367;52.202;5.996;2023-12-29T05:06:59;9.60;99.90
20416;DHT22;10367;52.202;5.996;2023-12-29T05:09:28;9.60;99.90
20416;DHT22;10367;52.202;5.996;2023-12-29T05:11:57;9.70;99.90
20416;DHT22;10367;52.202;5.996;2023-12-29T05:14:26;9.70;99.90
20416;DHT22;10367;52.202;5.996;2023-12-29T05:16:54;9.70;99.90
20416;DHT22;10367;52.202;5.996;2023-12-29T05:19:25;9.70;99.90
20416;DHT22;10367;52.202;5.996;2023-12-29T05:21:53;9.70;99.90
20416;DHT22;10367;52.202;5.996;2023-12-29T05:24:22;9.70;99.90
20416;DHT22;10367;52.202;5.996;2023-12-29T05:26:51;9.70;99.90
20416;DHT22;10367;52.202;5.996;2023-12-29T05:29:19;9.70;99.90
20416;DHT22;10367;52.202;5.996;2023-12-29T05:31:48;9.80;99.90
20416;DHT22;10367;52.202;5.996;2023-12-29T05:34:17;9.80;99.90
20416;DHT22;10367;52.202;5.996;2023-12-29T05:36:47;9.70;99.90
20416;DHT22;10367;52.202;5.996;2023-12-29T05:39:17;9.80;99.90
20416;DHT22;10367;52.202;5.996;2023-12-29T05:41:46;9.80;99.90
20416;DHT22;10367;52.202;5.996;2023-12-29T05:44:14;9.70;99.90
20416;DHT22;10367;52.202;5.996;2023-12-29T05:46:46;9.80;99.90
20416;DHT22;10367;52.202;5.996;2023-12-29T05:49:15;9.80;99.90
20416;DHT22;10367;52.202;5.996;2023-12-29T05:51:45;9.80;99.90
20416;DHT22;10367;52.202;5.996;2023-12-29T05:54:15;9.90;99.90
20416;DHT22;10367;52.202;5.996;2023-12-29T05:56:44;9.90;99.90
20416;DHT22;10367;52.202;5.996;2023-12-29T05:59:13;9.90;99.90
20416;DHT22;10367;52.202;5.996;2023-12-29T06:01:42;9.90;99.90
20416;DHT22;10367;52.202;5.996;2023-12-29T06:04:10;9.90;99.90
20416;DHT22;10367;52.202;5.996;2023-12-29T06:06:41;10.00;99.90
20416;DHT22;10367;52.202;5.996;2023-12-29T06:09:10;10.00;99.90
20416;DHT22;10367;52.202;5.996;2023-12-29T06:11:40;10.00;99.90
20416;DHT22;10367;52.202;5.996;2023-12-29T06:14:09;9.90;99.90
20416;DHT22;10367;52.202;5.996;2023-12-29T06:16:38;10.00;99.90
20416;DHT22;10367;52.202;5.996;2023-12-29T06:19:08;10.00;99.90
20416;DHT22;10367;52.202;5.996;2023-12-29T06:21:41;10.00;99.90
20416;DHT22;10367;52.202;5.996;2023-12-29T06:24:10;10.00;99.90
20416;DHT22;10367;52.202;5.996;2023-12-29T06:26:41;9.90;99.90
20416;DHT22;10367;52.202;5.996;2023-12-29T06:29:12;9.80;99.90
20416;DHT22;10367;52.202;5.996;2023-12-29T06:31:41;9.90;99.90
20416;DHT22;10367;52.202;5.996;2023-12-29T06:34:10;9.90;99.90
20416;DHT22;10367;52.202;5.996;2023-12-29T06:36:39;9.90;99.90
20416;DHT22;10367;52.202;5.996;2023-12-29T06:39:08;10.00;99.90
20416;DHT22;10367;52.202;5.996;2023-12-29T06:41:37;10.00;99.90
20416;DHT22;10367;52.202;5.996;2023-12-29T06:44:07;10.00;99.90
20416;DHT22;10367;52.202;5.996;2023-12-29T06:46:37;10.00;99.90
20416;DHT22;10367;52.202;5.996;2023-12-29T06:49:07;10.00;99.90
20416;DHT22;10367;52.202;5.996;2023-12-29T06:51:36;10.00;99.90
20416;DHT22;10367;52.202;5.996;2023-12-29T06:54:06;10.00;99.90
20416;DHT22;10367;52.202;5.996;2023-12-29T06:56:35;10.00;99.90
20416;DHT22;10367;52.202;5.996;2023-12-29T06:59:04;10.10;99.90
20416;DHT22;10367;52.202;5.996;2023-12-29T07:01:38;10.10;99.90
20416;DHT22;10367;52.202;5.996;2023-12-29T07:04:08;10.10;99.90
20416;DHT22;10367;52.202;5.996;2023-12-29T07:06:37;10.10;99.90
20416;DHT22;10367;52.202;5.996;2023-12-29T07:09:07;10.00;99.90
20416;DHT22;10367;52.202;5.996;2023-12-29T07:11:36;10.00;99.90
20416;DHT22;10367;52.202;5.996;2023-12-29T07:14:05;10.00;99.90
20416;DHT22;10367;52.202;5.996;2023-12-29T07:16:35;10.10;99.90
20416;DHT22;10367;52.202;5.996;2023-12-29T07:19:04;10.00;99.90
20416;DHT22;10367;52.202;5.996;2023-12-29T07:21:33;10.10;99.90
20416;DHT22;10367;52.202;5.996;2023-12-29T07:24:03;10.00;99.90
20416;DHT22;10367;52.202;5.996;2023-12-29T07:26:32;10.10;99.90
20416;DHT22;10367;52.202;5.996;2023-12-29T07:29:04;10.00;99.90
20416;DHT22;10367;52.202;5.996;2023-12-29T07:31:35;10.00;99.90
20416;DHT22;10367;52.202;5.996;2023-12-29T07:34:06;10.00;99.90
20416;DHT22;10367;52.202;5.996;2023-12-29T07:36:38;10.00;99.90
20416;DHT22;10367;52.202;5.996;2023-12-29T07:39:07;10.10;99.90
20416;DHT22;10367;52.202;5.996;2023-12-29T07:41:39;10.00;99.90
20416;DHT22;10367;52.202;5.996;2023-12-29T07:44:10;10.00;99.90
20416;DHT22;10367;52.202;5.996;2023-12-29T07:46:41;10.00;99.90
20416;DHT22;10367;52.202;5.996;2023-12-29T07:49:10;10.00;99.90
20416;DHT22;10367;52.202;5.996;2023-12-29T07:51:39;10.00;99.90
20416;DHT22;10367;52.202;5.996;2023-12-29T07:54:08;10.00;99.90
20416;DHT22;10367;52.202;5.996;2023-12-29T07:56:37;10.00;99.90
20416;DHT22;10367;52.202;5.996;2023-12-29T07:59:06;9.90;99.90
20416;DHT22;10367;52.202;5.996;2023-12-29T08:01:34;9.90;99.90
20416;DHT22;10367;52.202;5.996;2023-12-29T08:04:05;9.90;99.90
20416;DHT22;10367;52.202;5.996;2023-12-29T08:06:38;9.90;99.90
20416;DHT22;10367;52.202;5.996;2023-12-29T08:09:07;9.90;99.90
20416;DHT22;10367;52.202;5.996;2023-12-29T08:11:36;9.90;99.90
20416;DHT22;10367;52.202;5.996;2023-12-29T08:14:04;9.80;99.90
20416;DHT22;10367;52.202;5.996;2023-12-29T08:16:38;9.90;99.90
20416;DHT22;10367;52.202;5.996;2023-12-29T08:19:09;9.80;99.90
20416;DHT22;10367;52.202;5.996;2023-12-29T08:21:38;9.80;99.90
20416;DHT22;10367;52.202;5.996;2023-12-29T08:24:07;9.80;99.90
20416;DHT22;10367;52.202;5.996;2023-12-29T08:26:43;9.70;99.90
20416;DHT22;10367;52.202;5.996;2023-12-29T08:29:13;9.70;99.90
20416;DHT22;10367;52.202;5.996;2023-12-29T08:31:41;9.70;99.90
20416;DHT22;10367;52.202;5.996;2023-12-29T08:34:12;9.60;99.90
20416;DHT22;10367;52.202;5.996;2023-12-29T08:36:41;9.70;99.90
20416;DHT22;10367;52.202;5.996;2023-12-29T08:39:10;9.60;99.90
20416;DHT22;10367;52.202;5.996;2023-12-29T08:41:39;9.60;99.90
20416;DHT22;10367;52.202;5.996;2023-12-29T08:44:08;9.60;99.90
20416;DHT22;10367;52.202;5.996;2023-12-29T08:46:37;9.50;99.90
20416;DHT22;10367;52.202;5.996;2023-12-29T08:49:05;9.60;99.90
20416;DHT22;10367;52.202;5.996;2023-12-29T08:51:36;9.60;99.90
20416;DHT22;10367;52.202;5.996;2023-12-29T08:54:05;9.60;99.90
20416;DHT22;10367;52.202;5.996;2023-12-29T08:56:34;9.60;99.90
20416;DHT22;10367;52.202;5.996;2023-12-29T08:59:03;9.60;99.90
20416;DHT22;10367;52.202;5.996;2023-12-29T09:01:31;9.60;99.90
20416;DHT22;10367;52.202;5.996;2023-12-29T09:04:01;9.70;99.90
20416;DHT22;10367;52.202;5.996;2023-12-29T09:06:30;9.70;99.90
20416;DHT22;10367;52.202;5.996;2023-12-29T09:09:00;9.70;99.90
20416;DHT22;10367;52.202;5.996;2023-12-29T09:11:29;9.70;99.90
20416;DHT22;10367;52.202;5.996;2023-12-29T09:13:57;9.80;99.90
20416;DHT22;10367;52.202;5.996;2023-12-29T09:16:27;9.80;99.90
20416;DHT22;10367;52.202;5.996;2023-12-29T09:18:55;9.80;99.90
20416;DHT22;10367;52.202;5.996;2023-12-29T09:21:24;9.80;99.90
20416;DHT22;10367;52.202;5.996;2023-12-29T09:23:53;9.90;99.90
20416;DHT22;10367;52.202;5.996;2023-12-29T09:26:23;9.90;99.90
20416;DHT22;10367;52.202;5.996;2023-12-29T09:28:51;10.00;99.90
20416;DHT22;10367;52.202;5.996;2023-12-29T09:31:20;10.00;99.90
20416;DHT22;10367;52.202;5.996;2023-12-29T09:33:49;10.00;99.90
20416;DHT22;10367;52.202;5.996;2023-12-29T09:36:17;9.90;99.90
20416;DHT22;10367;52.202;5.996;2023-12-29T09:38:46;9.90;99.90
20416;DHT22;10367;52.202;5.996;2023-12-29T09:41:15;10.00;99.90
20416;DHT22;10367;52.202;5.996;2023-12-29T09:43:48;10.00;99.90
20416;DHT22;10367;52.202;5.996;2023-12-29T09:46:18;10.00;99.90
20416;DHT22;10367;52.202;5.996;2023-12-29T09:48:47;10.10;99.90
20416;DHT22;10367;52.202;5.996;2023-12-29T09:51:16;10.00;99.90
20416;DHT22;10367;52.202;5.996;2023-12-29T09:53:50;10.10;99.90
20416;DHT22;10367;52.202;5.996;2023-12-29T09:56:20;10.20;99.90
20416;DHT22;10367;52.202;5.996;2023-12-29T09:58:51;10.20;99.90
20416;DHT22;10367;52.202;5.996;2023-12-29T10:01:21;10.30;99.90
20416;DHT22;10367;52.202;5.996;2023-12-29T10:03:50;10.30;99.90
20416;DHT22;10367;52.202;5.996;2023-12-29T10:06:20;10.30;99.90
20416;DHT22;10367;52.202;5.996;2023-12-29T10:08:53;10.30;99.90
20416;DHT22;10367;52.202;5.996;2023-12-29T10:11:22;10.40;99.90
20416;DHT22;10367;52.202;5.996;2023-12-29T10:13:54;10.40;99.90
20416;DHT22;10367;52.202;5.996;2023-12-29T10:16:28;10.30;99.90
20416;DHT22;10367;52.202;5.996;2023-12-29T10:19:05;10.40;99.90
20416;DHT22;10367;52.202;5.996;2023-12-29T10:21:44;10.40;99.90
20416;DHT22;10367;52.202;5.996;2023-12-29T10:24:18;10.40;99.90
20416;DHT22;10367;52.202;5.996;2023-12-29T10:26:47;10.50;99.90
20416;DHT22;10367;52.202;5.996;2023-12-29T10:29:19;10.60;99.90
20416;DHT22;10367;52.202;5.996;2023-12-29T10:31:48;10.60;99.90
20416;DHT22;10367;52.202;5.996;2023-12-29T10:34:18;10.70;99.90
20416;DHT22;10367;52.202;5.996;2023-12-29T10:36:47;10.80;99.90
20416;DHT22;10367;52.202;5.996;2023-12-29T10:39:16;10.80;99.90
20416;DHT22;10367;52.202;5.996;2023-12-29T10:41:45;10.90;99.90
20416;DHT22;10367;52.202;5.996;2023-12-29T10:44:14;10.90;99.90
20416;DHT22;10367;52.202;5.996;2023-12-29T10:46:44;10.90;99.90
20416;DHT22;10367;52.202;5.996;2023-12-29T10:49:13;10.80;99.90
20416;DHT22;10367;52.202;5.996;2023-12-29T10:51:42;10.80;99.90
20416;DHT22;10367;52.202;5.996;2023-12-29T10:54:19;10.90;99.90
20416;DHT22;10367;52.202;5.996;2023-12-29T10:57:00;10.90;99.90
20416;DHT22;10367;52.202;5.996;2023-12-29T10:59:30;10.90;99.90
20416;DHT22;10367;52.202;5.996;2023-12-29T11:02:02;11.00;99.90
20416;DHT22;10367;52.202;5.996;2023-12-29T11:04:33;11.00;99.90
20416;DHT22;10367;52.202;5.996;2023-12-29T11:07:02;11.00;99.90
20416;DHT22;10367;52.202;5.996;2023-12-29T11:09:32;11.10;99.90
20416;DHT22;10367;52.202;5.996;2023-12-29T11:12:01;11.10;99.90
20416;DHT22;10367;52.202;5.996;2023-12-29T11:14:31;11.10;99.90
20416;DHT22;10367;52.202;5.996;2023-12-29T11:17:02;11.10;99.90
20416;DHT22;10367;52.202;5.996;2023-12-29T11:19:32;11.20;99.90
20416;DHT22;10367;52.202;5.996;2023-12-29T11:22:03;11.20;99.90
20416;DHT22;10367;52.202;5.996;2023-12-29T11:24:32;11.30;99.90
20416;DHT22;10367;52.202;5.996;2023-12-29T11:27:10;11.30;99.90
20416;DHT22;10367;52.202;5.996;2023-12-29T11:29:41;11.20;99.90
20416;DHT22;10367;52.202;5.996;2023-12-29T11:32:18;11.20;99.90
20416;DHT22;10367;52.202;5.996;2023-12-29T11:34:53;11.20;99.90
20416;DHT22;10367;52.202;5.996;2023-12-29T11:37:30;11.20;99.90
20416;DHT22;10367;52.202;5.996;2023-12-29T11:40:14;11.20;99.90
20416;DHT22;10367;52.202;5.996;2023-12-29T11:42:48;11.20;99.90
20416;DHT22;10367;52.202;5.996;2023-12-29T11:45:24;11.20;99.90
20416;DHT22;10367;52.202;5.996;2023-12-29T11:47:54;11.30;99.90
20416;DHT22;10367;52.202;5.996;2023-12-29T11:50:29;11.30;99.90
20416;DHT22;10367;52.202;5.996;2023-12-29T11:52:58;11.30;99.90
20416;DHT22;10367;52.202;5.996;2023-12-29T11:55:29;11.40;99.90
20416;DHT22;10367;52.202;5.996;2023-12-29T11:57:59;11.40;99.90
20416;DHT22;10367;52.202;5.996;2023-12-29T12:00:44;11.50;99.90
20416;DHT22;10367;52.202;5.996;2023-12-29T12:03:23;11.50;99.90
20416;DHT22;10367;52.202;5.996;2023-12-29T12:05:53;11.50;99.90
20416;DHT22;10367;52.202;5.996;2023-12-29T12:08:29;11.50;99.90
20416;DHT22;10367;52.202;5.996;2023-12-29T12:11:41;11.50;99.90
20416;DHT22;10367;52.202;5.996;2023-12-29T12:14:10;11.40;99.90
20416;DHT22;10367;52.202;5.996;2023-12-29T12:16:51;11.40;99.90
20416;DHT22;10367;52.202;5.996;2023-12-29T12:19:22;11.40;99.90
20416;DHT22;10367;52.202;5.996;2023-12-29T12:21:54;11.30;99.90
20416;DHT22;10367;52.202;5.996;2023-12-29T12:24:24;11.40;99.90
20416;DHT22;10367;52.202;5.996;2023-12-29T12:26:54;11.40;99.90
20416;DHT22;10367;52.202;5.996;2023-12-29T12:29:23;11.40;99.90
20416;DHT22;10367;52.202;5.996;2023-12-29T12:31:54;11.40;99.90
20416;DHT22;10367;52.202;5.996;2023-12-29T12:34:25;11.40;99.90
20416;DHT22;10367;52.202;5.996;2023-12-29T12:36:54;11.40;99.90
20416;DHT22;10367;52.202;5.996;2023-12-29T12:39:24;11.40;99.90
20416;DHT22;10367;52.202;5.996;2023-12-29T12:41:53;11.40;99.90
20416;DHT22;10367;52.202;5.996;2023-12-29T12:44:21;11.40;99.90
20416;DHT22;10367;52.202;5.996;2023-12-29T12:46:58;11.40;99.90
20416;DHT22;10367;52.202;5.996;2023-12-29T12:49:30;11.50;99.90
20416;DHT22;10367;52.202;5.996;2023-12-29T12:51:59;11.40;99.90
20416;DHT22;10367;52.202;5.996;2023-12-29T12:54:28;11.50;99.90
20416;DHT22;10367;52.202;5.996;2023-12-29T12:57:00;11.40;99.90
20416;DHT22;10367;52.202;5.996;2023-12-29T12:59:29;11.40;99.90
20416;DHT22;10367;52.202;5.996;2023-12-29T13:01:59;11.50;99.90
20416;DHT22;10367;52.202;5.996;2023-12-29T13:04:30;11.50;99.90
20416;DHT22;10367;52.202;5.996;2023-12-29T13:06:58;11.50;99.90
20416;DHT22;10367;52.202;5.996;2023-12-29T13:09:29;11.50;99.90
20416;DHT22;10367;52.202;5.996;2023-12-29T13:12:08;11.60;99.90
20416;DHT22;10367;52.202;5.996;2023-12-29T13:14:37;11.50;99.90
20416;DHT22;10367;52.202;5.996;2023-12-29T13:17:07;11.50;99.90
20416;DHT22;10367;52.202;5.996;2023-12-29T13:19:38;11.50;99.90
20416;DHT22;10367;52.202;5.996;2023-12-29T13:22:09;11.60;99.90
20416;DHT22;10367;52.202;5.996;2023-12-29T13:24:43;11.50;99.90
20416;DHT22;10367;52.202;5.996;2023-12-29T13:27:13;11.40;99.90
20416;DHT22;10367;52.202;5.996;2023-12-29T13:29:43;11.30;99.90
20416;DHT22;10367;52.202;5.996;2023-12-29T13:32:15;11.20;99.90
20416;DHT22;10367;52.202;5.996;2023-12-29T13:34:53;11.10;99.90
20416;DHT22;10367;52.202;5.996;2023-12-29T13:37:29;11.10;99.90
20416;DHT22;10367;52.202;5.996;2023-12-29T13:40:03;11.10;99.90
20416;DHT22;10367;52.202;5.996;2023-12-29T13:42:37;11.10;99.90
20416;DHT22;10367;52.202;5.996;2023-12-29T13:45:09;11.10;99.90
20416;DHT22;10367;52.202;5.996;2023-12-29T13:47:38;11.10;99.90
20416;DHT22;10367;52.202;5.996;2023-12-29T13:50:10;11.10;99.90
20416;DHT22;10367;52.202;5.996;2023-12-29T13:52:39;11.10;99.90
20416;DHT22;10367;52.202;5.996;2023-12-29T13:55:08;11.10;99.90
20416;DHT22;10367;52.202;5.996;2023-12-29T13:57:37;11.20;99.90
20416;DHT22;10367;52.202;5.996;2023-12-29T14:00:16;11.10;99.90
20416;DHT22;10367;52.202;5.996;2023-12-29T14:02:48;11.10;99.90
20416;DHT22;10367;52.202;5.996;2023-12-29T14:05:33;11.00;99.90
20416;DHT22;10367;52.202;5.996;2023-12-29T14:08:08;10.90;99.90
20416;DHT22;10367;52.202;5.996;2023-12-29T14:10:38;10.90;99.90
20416;DHT22;10367;52.202;5.996;2023-12-29T14:13:07;10.90;99.90
20416;DHT22;10367;52.202;5.996;2023-12-29T14:15:37;10.90;99.90
20416;DHT22;10367;52.202;5.996;2023-12-29T14:18:14;10.90;99.90
20416;DHT22;10367;52.202;5.996;2023-12-29T14:20:48;10.80;99.90
20416;DHT22;10367;52.202;5.996;2023-12-29T14:23:18;10.80;99.90
20416;DHT22;10367;52.202;5.996;2023-12-29T14:25:47;10.80;99.90
20416;DHT22;10367;52.202;5.996;2023-12-29T14:28:15;10.80;99.90
20416;DHT22;10367;52.202;5.996;2023-12-29T14:30:45;10.80;99.90
20416;DHT22;10367;52.202;5.996;2023-12-29T14:33:14;10.80;99.90
20416;DHT22;10367;52.202;5.996;2023-12-29T14:35:42;10.80;99.90
20416;DHT22;10367;52.202;5.996;2023-12-29T14:38:12;10.80;99.90
20416;DHT22;10367;52.202;5.996;2023-12-29T14:40:45;10.80;99.90
20416;DHT22;10367;52.202;5.996;2023-12-29T14:43:13;10.70;99.90
20416;DHT22;10367;52.202;5.996;2023-12-29T14:45:42;10.70;99.90
20416;DHT22;10367;52.202;5.996;2023-12-29T14:48:11;10.80;99.90
20416;DHT22;10367;52.202;5.996;2023-12-29T14:50:40;10.80;99.90
20416;DHT22;10367;52.202;5.996;2023-12-29T14:53:14;10.70;99.90
20416;DHT22;10367;52.202;5.996;2023-12-29T14:55:43;10.70;99.90
20416;DHT22;10367;52.202;5.996;2023-12-29T14:58:13;10.60;99.90
20416;DHT22;10367;52.202;5.996;2023-12-29T15:00:44;10.50;99.90
20416;DHT22;10367;52.202;5.996;2023-12-29T15:03:14;10.40;99.90
20416;DHT22;10367;52.202;5.996;2023-12-29T15:05:44;10.40;99.90
20416;DHT22;10367;52.202;5.996;2023-12-29T15:08:14;10.30;99.90
20416;DHT22;10367;52.202;5.996;2023-12-29T15:10:43;10.30;99.90
20416;DHT22;10367;52.202;5.996;2023-12-29T15:13:12;10.30;99.90
20416;DHT22;10367;52.202;5.996;2023-12-29T15:15:41;10.30;99.90
20416;DHT22;10367;52.202;5.996;2023-12-29T15:18:09;10.30;99.90
20416;DHT22;10367;52.202;5.996;2023-12-29T15:20:38;10.30;99.90
20416;DHT22;10367;52.202;5.996;2023-12-29T15:23:07;10.40;99.90
20416;DHT22;10367;52.202;5.996;2023-12-29T15:25:37;10.30;99.90
20416;DHT22;10367;52.202;5.996;2023-12-29T15:28:06;10.30;99.90
20416;DHT22;10367;52.202;5.996;2023-12-29T15:30:35;10.20;99.90
20416;DHT22;10367;52.202;5.996;2023-12-29T15:33:04;10.10;99.90
20416;DHT22;10367;52.202;5.996;2023-12-29T15:35:32;10.10;99.90
20416;DHT22;10367;52.202;5.996;2023-12-29T15:38:01;10.00;99.90
20416;DHT22;10367;52.202;5.996;2023-12-29T15:40:30;10.00;99.90
20416;DHT22;10367;52.202;5.996;2023-12-29T15:43:01;9.90;99.90
20416;DHT22;10367;52.202;5.996;2023-12-29T15:45:31;9.80;99.90
20416;DHT22;10367;52.202;5.996;2023-12-29T15:47:59;9.80;99.90
20416;DHT22;10367;52.202;5.996;2023-12-29T15:50:28;9.70;99.90
20416;DHT22;10367;52.202;5.996;2023-12-29T15:52:57;9.60;99.90
20416;DHT22;10367;52.202;5.996;2023-12-29T15:55:25;9.60;99.90